createdAt,value
2018-06-07T00:00:07.880Z,8.20
2018-06-07T00:01:07.897Z,8.30
2018-06-07T00:02:07.915Z,8.40
2018-06-07T00:03:07.941Z,8.10
2018-06-07T00:04:07.964Z,8.50
2018-06-07T00:05:07.969Z,8.00
2018-06-07T00:06:07.988Z,8.50
2018-06-07T00:07:08.104Z,7.50
2018-06-07T00:08:08.034Z,8.40
2018-06-07T00:09:08.039Z,8.40
2018-06-07T00:10:08.065Z,8.30
2018-06-07T00:11:08.077Z,8.70
2018-06-07T00:12:08.096Z,8.00
2018-06-07T00:13:08.110Z,7.80
2018-06-07T00:14:08.145Z,8.40
2018-06-07T00:15:08.147Z,8.50
2018-06-07T00:16:08.164Z,8.30
2018-06-07T00:17:08.181Z,8.50
2018-06-07T00:18:08.200Z,8.40
2018-06-07T00:19:08.217Z,8.30
2018-06-07T00:20:08.521Z,8.90
2018-06-07T00:21:08.495Z,8.50
2018-06-07T00:22:08.835Z,8.20
2018-06-07T00:23:08.291Z,7.90
2018-06-07T00:24:08.308Z,8.50
2018-06-07T00:25:08.331Z,8.20
2018-06-07T00:26:08.344Z,8.10
2018-06-07T00:27:08.360Z,8.10
2018-06-07T00:28:08.377Z,8.30
2018-06-07T00:29:08.395Z,8.30
2018-06-07T00:30:08.413Z,9.00
2018-06-07T00:31:08.431Z,8.20
2018-06-07T00:32:08.448Z,8.30
2018-06-07T00:33:08.470Z,8.70
2018-06-07T00:34:08.485Z,8.20
2018-06-07T00:35:08.503Z,8.50
2018-06-07T00:36:08.562Z,9.00
2018-06-07T00:37:08.536Z,9.00
2018-06-07T00:38:08.554Z,8.70
2018-06-07T00:39:08.568Z,8.60
2018-06-07T00:40:08.590Z,8.30
2018-06-07T00:41:08.607Z,8.60
2018-06-07T00:42:08.623Z,8.40
2018-06-07T00:43:08.643Z,8.00
2018-06-07T00:44:08.658Z,8.80
2018-06-07T00:45:08.676Z,9.30
2018-06-07T00:46:08.695Z,8.80
2018-06-07T00:47:08.712Z,9.40
2018-06-07T00:48:08.729Z,8.80
2018-06-07T00:49:08.747Z,8.50
2018-06-07T00:50:08.767Z,8.60
2018-06-07T00:51:08.781Z,8.80
2018-06-07T00:52:08.800Z,8.40
2018-06-07T00:53:08.818Z,9.10
2018-06-07T00:54:08.937Z,9.00
2018-06-07T00:55:09.245Z,8.90
2018-06-07T00:56:08.881Z,8.90
2018-06-07T00:57:08.888Z,8.80
2018-06-07T00:58:08.911Z,8.90
2018-06-07T00:59:08.924Z,9.10
2018-06-07T01:00:08.943Z,8.80
2018-06-07T01:01:08.958Z,9.20
2018-06-07T01:02:08.977Z,9.50
2018-06-07T01:03:09.009Z,9.40
2018-06-07T01:04:09.014Z,9.40
2018-06-07T01:05:09.033Z,9.10
2018-06-07T01:06:09.049Z,8.90
2018-06-07T01:07:09.064Z,9.90
2018-06-07T01:08:09.084Z,9.20
2018-06-07T01:09:09.098Z,9.10
2018-06-07T01:10:09.118Z,9.70
2018-06-07T01:11:09.133Z,9.60
2018-06-07T01:12:09.153Z,9.60
2018-06-07T01:13:09.169Z,9.20
2018-06-07T01:14:09.185Z,9.60
2018-06-07T01:15:09.210Z,9.70
2018-06-07T01:16:09.220Z,9.70
2018-06-07T01:17:09.244Z,9.40
2018-06-07T01:18:09.273Z,9.70
2018-06-07T01:19:09.272Z,9.80
2018-06-07T01:20:09.290Z,9.40
2018-06-07T01:21:09.307Z,9.40
2018-06-07T01:22:09.341Z,10.10
2018-06-07T01:23:09.342Z,9.60
2018-06-07T01:24:09.359Z,9.70
2018-06-07T01:25:09.377Z,9.80
2018-06-07T01:26:09.399Z,10.00
2018-06-07T01:27:09.414Z,9.30
2018-06-07T01:29:09.597Z,9.90
2018-06-07T01:30:10.125Z,9.80
2018-06-07T01:31:09.500Z,9.40
2018-06-07T01:32:09.513Z,10.00
2018-06-07T01:33:09.519Z,9.60
2018-06-07T01:34:09.542Z,9.90
2018-06-07T01:35:09.558Z,10.00
2018-06-07T01:36:09.570Z,10.10
2018-06-07T01:37:09.585Z,9.50
2018-06-07T01:38:09.608Z,10.00
2018-06-07T01:39:09.622Z,10.00
2018-06-07T01:40:09.639Z,10.50
2018-06-07T01:41:09.655Z,9.20
2018-06-07T01:42:09.673Z,10.40
2018-06-07T01:43:09.690Z,9.70
2018-06-07T01:44:09.717Z,9.90
2018-06-07T01:45:09.728Z,10.20
2018-06-07T01:46:09.743Z,9.70
2018-06-07T01:47:09.765Z,10.20
2018-06-07T01:48:09.776Z,10.00
2018-06-07T01:49:09.794Z,9.90
2018-06-07T01:50:09.815Z,10.50
2018-06-07T01:51:09.833Z,9.80
2018-06-07T01:52:09.849Z,10.00
2018-06-07T01:53:09.863Z,10.20
2018-06-07T01:54:09.880Z,9.90
2018-06-07T01:55:09.900Z,10.10
2018-06-07T01:56:09.930Z,10.00
2018-06-07T01:57:09.935Z,9.90
2018-06-07T01:58:09.957Z,9.90
2018-06-07T01:59:09.970Z,10.70
2018-06-07T02:00:09.985Z,10.30
2018-06-07T02:01:10.002Z,10.00
2018-06-07T02:02:10.022Z,9.90
2018-06-07T02:03:10.148Z,10.00
2018-06-07T02:05:10.095Z,10.70
2018-06-07T02:06:10.436Z,10.00
2018-06-07T02:07:10.105Z,10.90
2018-06-07T02:08:10.132Z,10.40
2018-06-07T02:09:10.149Z,10.00
2018-06-07T02:10:10.162Z,10.30
2018-06-07T02:11:10.181Z,10.20
2018-06-07T02:12:10.198Z,10.30
2018-06-07T02:13:10.215Z,10.40
2018-06-07T02:14:10.236Z,10.10
2018-06-07T02:15:10.244Z,10.20
2018-06-07T02:16:10.325Z,10.50
2018-06-07T02:17:10.281Z,10.40
2018-06-07T02:18:10.297Z,10.30
2018-06-07T02:19:10.322Z,10.70
2018-06-07T02:20:10.330Z,10.50
2018-06-07T02:21:10.355Z,10.40
2018-06-07T02:22:10.373Z,10.10
2018-06-07T02:23:10.385Z,10.80
2018-06-07T02:24:10.403Z,9.90
2018-06-07T02:25:10.420Z,10.70
2018-06-07T02:26:10.436Z,10.30
2018-06-07T02:27:10.465Z,10.80
2018-06-07T02:28:10.472Z,10.20
2018-06-07T02:29:10.486Z,10.60
2018-06-07T02:30:10.505Z,10.50
2018-06-07T02:31:10.523Z,10.40
2018-06-07T02:32:10.545Z,10.60
2018-06-07T02:33:10.557Z,11.10
2018-06-07T02:34:10.572Z,10.90
2018-06-07T02:36:11.366Z,10.20
2018-06-07T02:37:10.638Z,10.30
2018-06-07T02:38:10.643Z,10.20
2018-06-07T02:39:10.668Z,10.40
2018-06-07T02:40:10.678Z,10.90
2018-06-07T02:41:10.698Z,9.90
2018-06-07T02:42:10.709Z,10.20
2018-06-07T02:43:10.735Z,10.80
2018-06-07T02:44:10.746Z,10.80
2018-06-07T02:45:10.760Z,10.90
2018-06-07T02:46:10.778Z,11.50
2018-06-07T02:47:10.797Z,10.70
2018-06-07T02:48:10.827Z,11.30
2018-06-07T02:49:10.831Z,10.90
2018-06-07T02:50:10.847Z,10.80
2018-06-07T02:51:10.865Z,11.40
2018-06-07T02:52:10.884Z,11.20
2018-06-07T02:53:10.914Z,10.90
2018-06-07T02:54:10.917Z,10.60
2018-06-07T02:55:10.935Z,11.30
2018-06-07T02:56:10.956Z,10.70
2018-06-07T02:57:10.969Z,10.50
2018-06-07T02:58:10.986Z,11.70
2018-06-07T02:59:11.004Z,11.20
2018-06-07T03:00:11.022Z,11.40
2018-06-07T03:01:11.036Z,10.80
2018-06-07T03:02:11.057Z,11.70
2018-06-07T03:03:11.070Z,10.70
2018-06-07T03:04:11.087Z,11.10
2018-06-07T03:05:11.103Z,10.80
2018-06-07T03:06:11.125Z,11.20
2018-06-07T03:07:11.138Z,11.50
2018-06-07T03:08:11.154Z,10.70
2018-06-07T03:09:11.229Z,10.80
2018-06-07T03:10:11.559Z,10.80
2018-06-07T03:11:11.244Z,11.10
2018-06-07T03:12:11.226Z,11.40
2018-06-07T03:13:11.246Z,11.40
2018-06-07T03:14:11.262Z,11.70
2018-06-07T03:15:11.274Z,11.70
2018-06-07T03:16:11.297Z,11.40
2018-06-07T03:17:11.319Z,11.00
2018-06-07T03:18:11.327Z,11.40
2018-06-07T03:19:11.346Z,10.70
2018-06-07T03:20:11.360Z,11.10
2018-06-07T03:21:11.377Z,12.40
2018-06-07T03:22:11.395Z,11.00
2018-06-07T03:23:11.411Z,11.80
2018-06-07T03:24:11.431Z,11.80
2018-06-07T03:25:11.448Z,10.80
2018-06-07T03:26:11.467Z,11.50
2018-06-07T03:27:11.482Z,11.50
2018-06-07T03:28:11.496Z,11.20
2018-06-07T03:29:11.514Z,11.70
2018-06-07T03:30:11.535Z,11.40
2018-06-07T03:31:11.553Z,11.80
2018-06-07T03:32:11.566Z,11.30
2018-06-07T03:33:11.583Z,11.60
2018-06-07T03:34:11.599Z,11.00
2018-06-07T03:35:11.615Z,11.30
2018-06-07T03:36:11.635Z,12.00
2018-06-07T03:37:11.653Z,11.20
2018-06-07T03:38:11.669Z,10.80
2018-06-07T03:39:11.684Z,11.70
2018-06-07T03:40:11.700Z,11.30
2018-06-07T03:41:11.831Z,11.90
2018-06-07T03:43:11.753Z,11.40
2018-06-07T03:44:11.775Z,11.10
2018-06-07T03:45:11.785Z,11.30
2018-06-07T03:46:11.814Z,10.80
2018-06-07T03:47:11.823Z,11.70
2018-06-07T03:48:11.837Z,11.50
2018-06-07T03:49:11.861Z,11.70
2018-06-07T03:50:11.876Z,11.50
2018-06-07T03:51:11.895Z,10.90
2018-06-07T03:52:11.916Z,10.70
2018-06-07T03:53:11.926Z,11.30
2018-06-07T03:54:11.941Z,11.40
2018-06-07T03:55:11.991Z,11.10
2018-06-07T03:56:11.978Z,10.40
2018-06-07T03:57:11.992Z,11.10
2018-06-07T03:58:12.010Z,10.70
2018-06-07T03:59:12.025Z,11.30
2018-06-07T04:00:12.039Z,10.50
2018-06-07T04:01:12.062Z,10.10
2018-06-07T04:02:12.073Z,10.80
2018-06-07T04:03:12.101Z,11.10
2018-06-07T04:04:12.107Z,11.40
2018-06-07T04:05:12.127Z,11.00
2018-06-07T04:06:12.152Z,10.80
2018-06-07T04:07:12.159Z,11.20
2018-06-07T04:08:12.179Z,10.50
2018-06-07T04:09:12.194Z,10.80
2018-06-07T04:10:12.229Z,11.00
2018-06-07T04:11:12.227Z,11.20
2018-06-07T04:12:12.244Z,11.50
2018-06-07T04:13:12.262Z,11.20
2018-06-07T04:14:12.279Z,10.50
2018-06-07T04:15:12.295Z,11.10
2018-06-07T04:16:12.400Z,11.40
2018-06-07T04:17:12.391Z,10.90
2018-06-07T04:18:12.542Z,14.20
2018-06-07T04:19:12.410Z,11.50
2018-06-07T04:20:12.379Z,11.10
2018-06-07T04:21:12.402Z,11.30
2018-06-07T04:22:12.415Z,10.90
2018-06-07T04:23:12.437Z,11.40
2018-06-07T04:24:12.457Z,11.20
2018-06-07T04:25:12.470Z,10.90
2018-06-07T04:26:12.484Z,10.90
2018-06-07T04:27:12.499Z,10.70
2018-06-07T04:28:12.515Z,10.40
2018-06-07T04:29:12.536Z,11.20
2018-06-07T04:30:12.549Z,11.00
2018-06-07T04:31:12.574Z,11.10
2018-06-07T04:32:12.633Z,10.50
2018-06-07T04:33:12.601Z,11.10
2018-06-07T04:34:12.627Z,11.60
2018-06-07T04:35:12.634Z,11.30
2018-06-07T04:36:12.650Z,10.90
2018-06-07T04:37:12.677Z,11.50
2018-06-07T04:38:12.691Z,10.90
2018-06-07T04:39:12.702Z,10.90
2018-06-07T04:40:12.898Z,11.50
2018-06-07T04:41:12.994Z,11.10
2018-06-07T04:42:12.993Z,10.90
2018-06-07T04:43:12.821Z,10.20
2018-06-07T04:44:12.790Z,10.80
2018-06-07T04:45:12.804Z,10.50
2018-06-07T04:46:12.897Z,10.50
2018-06-07T04:47:12.852Z,10.50
2018-06-07T04:48:12.854Z,10.90
2018-06-07T04:49:12.939Z,11.20
2018-06-07T04:50:12.991Z,10.80
2018-06-07T04:51:12.935Z,10.70
2018-06-07T04:52:12.928Z,10.20
2018-06-07T04:53:12.948Z,10.10
2018-06-07T04:54:12.958Z,11.20
2018-06-07T04:55:12.973Z,10.70
2018-06-07T04:56:12.993Z,10.50
2018-06-07T04:57:13.013Z,10.70
2018-06-07T04:58:13.026Z,10.50
2018-06-07T04:59:13.046Z,10.60
2018-06-07T05:00:13.439Z,10.40
2018-06-07T05:01:13.324Z,11.10
2018-06-07T05:02:13.095Z,10.70
2018-06-07T05:03:13.112Z,10.50
2018-06-07T05:04:13.131Z,10.90
2018-06-07T05:05:13.291Z,10.10
2018-06-07T05:06:13.176Z,10.80
2018-06-07T05:07:13.378Z,10.50
2018-06-07T05:08:13.245Z,10.50
2018-06-07T05:09:13.291Z,10.70
2018-06-07T05:10:13.230Z,10.40
2018-06-07T05:11:13.260Z,11.10
2018-06-07T05:12:13.297Z,12.70
2018-06-07T05:13:13.293Z,11.10
2018-06-07T05:14:13.311Z,10.20
2018-06-07T05:15:13.368Z,9.70
2018-06-07T05:16:13.341Z,10.20
2018-06-07T05:17:13.350Z,10.20
2018-06-07T05:18:13.401Z,10.20
2018-06-07T05:19:13.384Z,10.50
2018-06-07T05:20:13.403Z,10.30
2018-06-07T05:21:13.437Z,10.70
2018-06-07T05:22:13.438Z,10.60
2018-06-07T05:23:13.551Z,11.20
2018-06-07T05:24:13.595Z,10.50
2018-06-07T05:25:13.533Z,10.70
2018-06-07T05:26:13.524Z,10.70
2018-06-07T05:27:13.522Z,11.20
2018-06-07T05:28:13.540Z,10.60
2018-06-07T05:29:13.559Z,10.50
2018-06-07T05:30:13.575Z,11.40
2018-06-07T05:31:13.591Z,10.80
2018-06-07T05:32:13.625Z,11.10
2018-06-07T05:33:13.628Z,11.30
2018-06-07T05:34:13.643Z,11.00
2018-06-07T05:35:13.664Z,11.30
2018-06-07T05:36:13.701Z,10.90
2018-06-07T05:37:14.150Z,10.80
2018-06-07T05:38:13.728Z,11.00
2018-06-07T05:39:13.731Z,11.70
2018-06-07T05:40:13.769Z,11.20
2018-06-07T05:41:13.762Z,11.80
2018-06-07T05:42:13.779Z,11.20
2018-06-07T05:43:13.800Z,12.20
2018-06-07T05:44:13.867Z,13.60
2018-06-07T05:45:13.839Z,12.10
2018-06-07T05:46:13.873Z,11.80
2018-06-07T05:47:13.883Z,11.50
2018-06-07T05:48:13.894Z,11.20
2018-06-07T05:49:13.928Z,11.70
2018-06-07T05:50:13.926Z,11.70
2018-06-07T05:51:13.940Z,12.00
2018-06-07T05:52:13.959Z,11.60
2018-06-07T05:53:13.963Z,11.40
2018-06-07T05:54:13.995Z,12.10
2018-06-07T05:55:13.999Z,11.70
2018-06-07T05:56:14.050Z,12.50
2018-06-07T05:57:14.077Z,11.30
2018-06-07T05:58:14.051Z,11.20
2018-06-07T05:59:14.071Z,11.20
2018-06-07T06:00:14.112Z,11.40
2018-06-07T06:01:14.104Z,11.70
2018-06-07T06:02:14.176Z,10.10
2018-06-07T06:03:14.161Z,11.70
2018-06-07T06:04:14.230Z,12.10
2018-06-07T06:05:14.234Z,11.40
2018-06-07T06:06:14.200Z,11.70
2018-06-07T06:07:14.222Z,11.80
2018-06-07T06:08:14.234Z,11.90
2018-06-07T06:09:14.252Z,10.70
2018-06-07T06:10:14.260Z,11.70
2018-06-07T06:11:14.282Z,11.90
2018-06-07T06:12:14.319Z,12.60
2018-06-07T06:13:14.314Z,12.50
2018-06-07T06:14:14.329Z,11.50
2018-06-07T06:15:14.430Z,12.10
2018-06-07T06:16:14.363Z,10.90
2018-06-07T06:17:14.381Z,12.40
2018-06-07T06:18:14.490Z,12.00
2018-06-07T06:19:14.449Z,11.40
2018-06-07T06:20:14.434Z,12.40
2018-06-07T06:21:14.480Z,12.70
2018-06-07T06:22:14.471Z,12.30
2018-06-07T06:23:14.510Z,12.20
2018-06-07T06:24:14.507Z,12.10
2018-06-07T06:25:14.530Z,11.80
2018-06-07T06:26:14.618Z,10.90
2018-06-07T06:28:14.576Z,11.70
2018-06-07T06:29:14.592Z,12.40
2018-06-07T06:30:14.610Z,12.10
2018-06-07T06:31:14.627Z,11.40
2018-06-07T06:32:14.649Z,11.90
2018-06-07T06:33:14.662Z,12.70
2018-06-07T06:34:14.684Z,12.80
2018-06-07T06:35:14.702Z,12.40
2018-06-07T06:36:14.717Z,12.90
2018-06-07T06:37:14.785Z,12.10
2018-06-07T06:39:14.771Z,13.50
2018-06-07T06:40:14.804Z,13.40
2018-06-07T06:41:14.806Z,12.70
2018-06-07T06:42:14.821Z,12.50
2018-06-07T06:43:15.017Z,13.40
2018-06-07T06:44:15.350Z,12.80
2018-06-07T06:45:15.109Z,12.40
2018-06-07T06:46:14.994Z,12.60
2018-06-07T06:47:14.916Z,12.60
2018-06-07T06:48:14.947Z,13.10
2018-06-07T06:49:15.033Z,12.90
2018-06-07T06:50:14.993Z,12.90
2018-06-07T06:51:14.982Z,13.80
2018-06-07T06:52:15.008Z,13.70
2018-06-07T06:53:15.704Z,13.40
2018-06-07T06:54:16.111Z,12.80
2018-06-07T06:55:15.609Z,13.70
2018-06-07T06:56:16.023Z,12.70
2018-06-07T06:57:15.110Z,13.10
2018-06-07T06:58:15.117Z,12.70
2018-06-07T06:59:15.160Z,13.30
2018-06-07T07:00:15.150Z,12.70
2018-06-07T07:01:15.186Z,13.60
2018-06-07T07:02:15.179Z,13.40
2018-06-07T07:03:15.200Z,12.50
2018-06-07T07:04:15.263Z,13.20
2018-06-07T07:05:15.475Z,13.40
2018-06-07T07:06:15.632Z,12.30
2018-06-07T07:07:16.208Z,14.50
2018-06-07T07:08:15.290Z,13.30
2018-06-07T07:09:15.317Z,13.50
2018-06-07T07:10:15.321Z,13.40
2018-06-07T07:11:15.339Z,12.90
2018-06-07T07:12:15.364Z,12.70
2018-06-07T07:13:15.378Z,13.00
2018-06-07T07:14:15.394Z,12.50
2018-06-07T07:15:15.433Z,13.30
2018-06-07T07:16:15.641Z,12.70
2018-06-07T07:17:15.450Z,13.00
2018-06-07T07:18:15.472Z,12.40
2018-06-07T07:19:15.486Z,13.50
2018-06-07T07:20:15.504Z,12.50
2018-06-07T07:21:15.593Z,13.90
2018-06-07T07:22:15.554Z,13.20
2018-06-07T07:23:15.577Z,13.50
2018-06-07T07:24:15.612Z,13.20
2018-06-07T07:25:15.593Z,13.10
2018-06-07T07:26:16.429Z,12.10
2018-06-07T07:27:17.018Z,13.80
2018-06-07T07:28:15.648Z,13.90
2018-06-07T07:29:15.669Z,13.80
2018-06-07T07:30:15.689Z,13.20
2018-06-07T07:31:15.819Z,13.50
2018-06-07T07:32:15.722Z,12.60
2018-06-07T07:33:15.753Z,13.60
2018-06-07T07:34:15.760Z,12.20
2018-06-07T07:35:15.794Z,13.00
2018-06-07T07:36:15.806Z,14.10
2018-06-07T07:37:15.841Z,14.60
2018-06-07T07:38:16.047Z,13.50
2018-06-07T07:39:15.881Z,14.70
2018-06-07T07:40:15.870Z,14.00
2018-06-07T07:41:15.905Z,14.80
2018-06-07T07:42:15.905Z,14.10
2018-06-07T07:43:15.922Z,13.50
2018-06-07T07:44:15.943Z,13.90
2018-06-07T07:45:15.985Z,13.80
2018-06-07T07:46:15.984Z,12.40
2018-06-07T07:47:16.002Z,13.70
2018-06-07T07:48:16.013Z,13.50
2018-06-07T07:49:16.038Z,14.50
2018-06-07T07:50:16.100Z,14.60
2018-06-07T07:51:16.074Z,16.60
2018-06-07T07:52:16.143Z,14.40
2018-06-07T07:53:16.109Z,14.30
2018-06-07T07:54:16.152Z,14.40
2018-06-07T07:55:16.151Z,13.40
2018-06-07T07:56:16.162Z,13.90
2018-06-07T07:57:16.180Z,14.80
2018-06-07T07:58:16.200Z,14.90
2018-06-07T07:59:16.223Z,13.90
2018-06-07T08:00:16.251Z,13.60
2018-06-07T08:01:16.254Z,14.30
2018-06-07T08:02:16.299Z,14.50
2018-06-07T08:03:16.301Z,14.80
2018-06-07T08:04:16.310Z,14.30
2018-06-07T08:05:16.346Z,14.20
2018-06-07T08:06:16.349Z,13.90
2018-06-07T08:07:16.370Z,14.80
2018-06-07T08:08:16.399Z,14.70
2018-06-07T08:09:16.417Z,14.20
2018-06-07T08:10:16.438Z,14.10
2018-06-07T08:11:16.442Z,15.00
2018-06-07T08:12:16.467Z,13.80
2018-06-07T08:13:16.504Z,14.30
2018-06-07T08:14:16.496Z,13.30
2018-06-07T08:15:16.548Z,12.80
2018-06-07T08:16:16.533Z,14.90
2018-06-07T08:17:16.564Z,14.90
2018-06-07T08:18:16.572Z,15.30
2018-06-07T08:19:16.591Z,14.80
2018-06-07T08:20:16.608Z,14.40
2018-06-07T08:21:16.627Z,15.40
2018-06-07T08:22:16.652Z,15.70
2018-06-07T08:23:16.666Z,15.20
2018-06-07T08:24:16.684Z,15.60
2018-06-07T08:25:16.702Z,14.60
2018-06-07T08:26:16.721Z,15.40
2018-06-07T08:27:16.741Z,15.10
2018-06-07T08:28:16.758Z,15.80
2018-06-07T08:29:16.780Z,15.20
2018-06-07T08:30:16.796Z,15.70
2018-06-07T08:31:16.813Z,14.80
2018-06-07T08:32:16.833Z,16.40
2018-06-07T08:33:16.857Z,16.70
2018-06-07T08:34:16.886Z,15.10
2018-06-07T08:35:16.888Z,16.00
2018-06-07T08:36:16.908Z,16.30
2018-06-07T08:37:16.929Z,16.00
2018-06-07T08:38:16.946Z,15.80
2018-06-07T08:39:16.964Z,15.90
2018-06-07T08:40:16.985Z,16.40
2018-06-07T08:41:17.002Z,15.00
2018-06-07T08:42:17.025Z,16.10
2018-06-07T08:43:17.043Z,14.90
2018-06-07T08:44:17.063Z,15.40
2018-06-07T08:45:17.084Z,15.00
2018-06-07T08:46:17.103Z,14.50
2018-06-07T08:47:17.120Z,14.10
2018-06-07T08:48:17.134Z,15.00
2018-06-07T08:49:17.158Z,14.30
2018-06-07T08:50:17.181Z,13.90
2018-06-07T08:51:17.335Z,15.00
2018-06-07T08:52:17.211Z,15.10
2018-06-07T08:53:17.233Z,16.50
2018-06-07T08:54:17.258Z,16.00
2018-06-07T08:55:17.271Z,15.60
2018-06-07T08:56:17.289Z,14.90
2018-06-07T08:57:17.331Z,16.30
2018-06-07T08:58:17.325Z,15.90
2018-06-07T08:59:17.350Z,15.20
2018-06-07T09:00:17.428Z,14.80
2018-06-07T09:01:17.390Z,14.30
2018-06-07T09:02:17.401Z,15.00
2018-06-07T09:03:17.423Z,14.70
2018-06-07T09:04:17.442Z,14.50
2018-06-07T09:05:17.462Z,14.40
2018-06-07T09:06:17.481Z,14.50
2018-06-07T09:07:17.511Z,15.00
2018-06-07T09:08:17.710Z,14.20
2018-06-07T09:09:17.541Z,15.70
2018-06-07T09:10:17.556Z,15.10
2018-06-07T09:11:17.580Z,14.20
2018-06-07T09:12:17.641Z,14.00
2018-06-07T09:13:17.641Z,14.60
2018-06-07T09:14:17.689Z,14.60
2018-06-07T09:15:17.677Z,15.70
2018-06-07T09:16:17.697Z,15.30
2018-06-07T09:17:17.725Z,14.70
2018-06-07T09:18:17.722Z,15.60
2018-06-07T09:19:17.726Z,14.10
2018-06-07T09:20:17.747Z,13.50
2018-06-07T09:21:17.774Z,14.40
2018-06-07T09:22:17.789Z,15.00
2018-06-07T09:23:17.804Z,15.10
2018-06-07T09:24:17.824Z,14.00
2018-06-07T09:25:17.846Z,13.90
2018-06-07T09:26:17.865Z,15.30
2018-06-07T09:27:17.898Z,15.10
2018-06-07T09:28:17.901Z,15.40
2018-06-07T09:29:17.922Z,15.90
2018-06-07T09:30:17.977Z,17.10
2018-06-07T09:31:17.960Z,16.90
2018-06-07T09:32:17.980Z,15.60
2018-06-07T09:33:17.998Z,15.20
2018-06-07T09:34:18.035Z,14.80
2018-06-07T09:35:18.109Z,14.70
2018-06-07T09:36:18.073Z,13.10
2018-06-07T09:37:18.160Z,13.80
2018-06-07T09:38:18.222Z,12.90
2018-06-07T09:39:18.148Z,13.30
2018-06-07T09:40:18.142Z,14.00
2018-06-07T09:41:18.157Z,14.20
2018-06-07T09:42:18.173Z,14.80
2018-06-07T09:43:18.205Z,15.10
2018-06-07T09:44:18.215Z,13.60
2018-06-07T09:45:18.250Z,13.10
2018-06-07T09:46:18.251Z,13.70
2018-06-07T09:47:18.275Z,13.30
2018-06-07T09:48:18.291Z,13.90
2018-06-07T09:49:18.328Z,15.90
2018-06-07T09:50:18.336Z,14.90
2018-06-07T09:51:18.366Z,15.50
2018-06-07T09:52:18.369Z,14.70
2018-06-07T09:53:18.408Z,15.30
2018-06-07T09:54:18.414Z,16.70
2018-06-07T09:55:18.447Z,15.30
2018-06-07T09:56:18.461Z,15.50
2018-06-07T09:57:18.488Z,14.60
2018-06-07T09:58:18.506Z,14.90
2018-06-07T09:59:18.510Z,13.70
2018-06-07T10:00:18.532Z,15.70
2018-06-07T10:01:18.549Z,16.90
2018-06-07T10:02:18.572Z,16.30
2018-06-07T10:03:18.586Z,18.30
2018-06-07T10:04:18.610Z,16.30
2018-06-07T10:05:18.632Z,15.60
2018-06-07T10:06:18.655Z,15.60
2018-06-07T10:07:18.666Z,15.30
2018-06-07T10:08:18.683Z,16.80
2018-06-07T10:09:18.794Z,15.50
2018-06-07T10:10:19.348Z,17.10
2018-06-07T10:11:18.839Z,15.70
2018-06-07T10:12:18.822Z,15.20
2018-06-07T10:13:18.781Z,15.80
2018-06-07T10:14:18.802Z,15.90
2018-06-07T10:15:18.822Z,15.80
2018-06-07T10:16:18.859Z,15.40
2018-06-07T10:17:18.883Z,15.40
2018-06-07T10:18:19.425Z,16.70
2018-06-07T10:19:18.904Z,16.40
2018-06-07T10:20:18.921Z,18.00
2018-06-07T10:21:18.944Z,17.70
2018-06-07T10:22:19.008Z,17.00
2018-06-07T10:23:18.983Z,18.10
2018-06-07T10:24:19.002Z,17.80
2018-06-07T10:25:19.025Z,17.20
2018-06-07T10:26:19.045Z,17.60
2018-06-07T10:27:19.112Z,16.30
2018-06-07T10:28:19.083Z,16.90
2018-06-07T10:29:19.247Z,16.20
2018-06-07T10:30:19.130Z,15.80
2018-06-07T10:31:19.145Z,17.30
2018-06-07T10:32:19.167Z,17.40
2018-06-07T10:33:19.188Z,17.20
2018-06-07T10:34:19.211Z,16.60
2018-06-07T10:35:19.224Z,15.20
2018-06-07T10:36:19.260Z,15.20
2018-06-07T10:37:19.270Z,15.20
2018-06-07T10:38:19.289Z,16.60
2018-06-07T10:39:19.330Z,16.20
2018-06-07T10:40:19.329Z,14.50
2018-06-07T10:41:19.351Z,14.80
2018-06-07T10:42:19.468Z,15.80
2018-06-07T10:43:19.389Z,15.90
2018-06-07T10:44:19.764Z,16.90
2018-06-07T10:45:19.738Z,16.00
2018-06-07T10:46:19.457Z,15.90
2018-06-07T10:47:19.476Z,17.40
2018-06-07T10:48:19.693Z,16.90
2018-06-07T10:49:19.668Z,16.40
2018-06-07T10:50:19.542Z,16.60
2018-06-07T10:51:19.576Z,16.10
2018-06-07T10:53:20.178Z,14.50
2018-06-07T10:54:19.617Z,16.80
2018-06-07T10:55:19.634Z,14.90
2018-06-07T10:56:19.654Z,17.50
2018-06-07T10:57:19.741Z,16.60
2018-06-07T10:58:19.783Z,16.60
2018-06-07T10:59:19.716Z,15.50
2018-06-07T11:00:19.736Z,15.10
2018-06-07T11:01:19.759Z,16.00
2018-06-07T11:02:19.778Z,15.80
2018-06-07T11:03:19.799Z,16.20
2018-06-07T11:04:19.841Z,17.40
2018-06-07T11:05:19.858Z,16.60
2018-06-07T11:06:19.861Z,17.60
2018-06-07T11:07:19.879Z,17.50
2018-06-07T11:08:19.903Z,18.40
2018-06-07T11:09:19.927Z,16.50
2018-06-07T11:10:19.944Z,16.20
2018-06-07T11:11:19.970Z,15.40
2018-06-07T11:12:20.038Z,15.30
2018-06-07T11:13:20.023Z,16.40
2018-06-07T11:14:20.072Z,15.30
2018-06-07T11:15:20.051Z,15.60
2018-06-07T11:16:20.074Z,13.50
2018-06-07T11:17:20.098Z,14.20
2018-06-07T11:18:20.118Z,14.90
2018-06-07T11:19:20.133Z,14.40
2018-06-07T11:20:20.154Z,13.70
2018-06-07T11:21:20.251Z,14.00
2018-06-07T11:22:20.526Z,12.50
2018-06-07T11:23:20.218Z,12.50
2018-06-07T11:24:20.238Z,13.60
2018-06-07T11:25:20.292Z,13.40
2018-06-07T11:26:20.294Z,13.00
2018-06-07T11:27:20.311Z,13.20
2018-06-07T11:28:20.336Z,12.20
2018-06-07T11:29:20.358Z,13.70
2018-06-07T11:30:20.387Z,13.50
2018-06-07T11:31:20.391Z,13.00
2018-06-07T11:32:20.408Z,13.20
2018-06-07T11:33:20.428Z,13.00
2018-06-07T11:34:20.451Z,13.90
2018-06-07T11:35:20.476Z,12.80
2018-06-07T11:36:20.700Z,14.00
2018-06-07T11:37:20.517Z,13.50
2018-06-07T11:38:20.551Z,13.50
2018-06-07T11:39:20.561Z,14.40
2018-06-07T11:40:20.582Z,14.70
2018-06-07T11:41:20.603Z,15.20
2018-06-07T11:42:20.907Z,15.00
2018-06-07T11:43:21.261Z,14.10
2018-06-07T11:44:20.675Z,13.00
2018-06-07T11:45:20.753Z,13.30
2018-06-07T11:46:20.709Z,13.50
2018-06-07T11:47:20.727Z,13.80
2018-06-07T11:48:20.760Z,14.00
2018-06-07T11:49:20.804Z,13.10
2018-06-07T11:50:20.796Z,14.10
2018-06-07T11:51:20.826Z,12.70
2018-06-07T11:52:20.898Z,14.40
2018-06-07T11:53:20.858Z,14.20
2018-06-07T11:54:20.880Z,13.90
2018-06-07T11:55:20.904Z,13.80
2018-06-07T11:56:20.923Z,14.10
2018-06-07T11:57:20.945Z,13.70
2018-06-07T11:58:20.991Z,12.60
2018-06-07T11:59:20.997Z,12.50
2018-06-07T12:00:21.014Z,12.70
2018-06-07T12:01:21.054Z,11.50
2018-06-07T12:02:21.055Z,12.20
2018-06-07T12:03:21.080Z,12.50
2018-06-07T12:04:21.099Z,11.50
2018-06-07T12:05:21.123Z,11.80
2018-06-07T12:06:21.144Z,11.10
2018-06-07T12:07:21.176Z,10.50
2018-06-07T12:08:21.193Z,9.90
2018-06-07T12:09:21.213Z,10.20
2018-06-07T12:10:21.232Z,10.50
2018-06-07T12:11:21.252Z,10.40
2018-06-07T12:12:21.283Z,10.00
2018-06-07T12:13:21.298Z,9.90
2018-06-07T12:14:21.320Z,11.00
2018-06-07T12:15:21.348Z,11.00
2018-06-07T12:16:21.369Z,10.50
2018-06-07T12:17:21.388Z,11.00
2018-06-07T12:18:21.410Z,11.20
2018-06-07T12:19:21.432Z,11.90
2018-06-07T12:20:21.455Z,11.80
2018-06-07T12:22:21.498Z,11.70
2018-06-07T12:23:21.526Z,11.70
2018-06-07T12:24:21.545Z,11.70
2018-06-07T12:25:21.582Z,11.20
2018-06-07T12:26:21.590Z,11.00
2018-06-07T12:27:21.612Z,12.10
2018-06-07T12:28:21.632Z,12.20
2018-06-07T12:29:21.656Z,11.60
2018-06-07T12:30:21.689Z,12.10
2018-06-07T12:31:21.704Z,11.30
2018-06-07T12:32:21.740Z,11.90
2018-06-07T12:33:21.895Z,11.60
2018-06-07T12:34:21.779Z,12.00
2018-06-07T12:35:21.819Z,12.30
2018-06-07T12:36:21.816Z,11.80
2018-06-07T12:37:21.858Z,11.80
2018-06-07T12:38:21.860Z,12.70
2018-06-07T12:39:21.924Z,11.40
2018-06-07T12:40:21.966Z,11.70
2018-06-07T12:41:21.936Z,11.70
2018-06-07T12:42:21.961Z,12.60
2018-06-07T12:43:21.984Z,12.20
2018-06-07T12:44:22.134Z,12.10
2018-06-07T12:45:22.030Z,12.30
2018-06-07T12:46:22.057Z,11.30
2018-06-07T12:47:22.079Z,11.70
2018-06-07T12:48:22.113Z,12.10
2018-06-07T12:49:22.128Z,11.90
2018-06-07T12:50:22.153Z,12.90
2018-06-07T12:51:22.177Z,12.50
2018-06-07T12:52:22.209Z,12.20
2018-06-07T12:53:22.227Z,11.80
2018-06-07T12:54:22.251Z,12.90
2018-06-07T12:55:22.278Z,12.60
2018-06-07T12:56:22.299Z,13.10
2018-06-07T12:57:22.547Z,12.40
2018-06-07T12:58:22.349Z,13.90
2018-06-07T12:59:22.370Z,12.40
2018-06-07T13:00:22.402Z,12.70
2018-06-07T13:01:22.452Z,12.40
2018-06-07T13:02:22.445Z,15.80
2018-06-07T13:03:22.487Z,14.90
2018-06-07T13:04:22.505Z,14.20